This is the latest recevied weather packets stored in our database for station/object K1ABC. If no packets are shown the sender has not sent any weather packets the latest 1 day(s).
| Time | Temp. | Humidity | Pressure | Rain* | Wind** | Luminosity | Snow |
|---|---|---|---|---|---|---|---|
| 1778036011 | 20° C | 56% | 1008.2 hPa | 0 mm | 1.34 m/s, 224° | - | - |
| 1778033952 | 21.11° C | 53% | 1008.3 hPa | 0 mm | 1.79 m/s, 228° | - | - |
| 1778033510 | 21.11° C | 52% | 1008.3 hPa | 0 mm | 1.79 m/s, 234° | - | - |
| 1778031334 | 21.11° C | 53% | 1008.3 hPa | 0 mm | 1.34 m/s, 202° | - | - |
| 1778030632 | 21.11° C | 52% | 1008.4 hPa | 0 mm | 0.89 m/s, 215° | - | - |
| 1778030315 | 21.11° C | 52% | 1008.3 hPa | 0 mm | 0.89 m/s, 221° | - | - |
| 1778029099 | 21.67° C | 50% | 1007.5 hPa | 0 mm | 1.79 m/s, 232° | - | - |
| 1778028639 | 21.67° C | 50% | 1007.3 hPa | 0 mm | 1.79 m/s, 231° | - | - |
| 1778027940 | 22.22° C | 50% | 1006.9 hPa | 0 mm | 2.24 m/s, 218° | - | - |
| 1778026867 | 22.22° C | 49% | 1006.5 hPa | 0 mm | 1.79 m/s, 228° | - | - |
| 1778026414 | 22.22° C | 49% | 1006.3 hPa | 0 mm | 1.79 m/s, 241° | - | - |
| 1778024582 | 23.33° C | 48% | 1005.8 hPa | 0 mm | 1.79 m/s, 232° | - | - |
| 1778024382 | 23.33° C | 48% | 1005.7 hPa | 0 mm | 1.34 m/s, 229° | - | - |
| 1778023183 | 23.89° C | 46% | 1005.4 hPa | 0 mm | 2.24 m/s, 233° | - | - |
| 1778022980 | 23.89° C | 46% | 1005.3 hPa | 0 mm | 2.24 m/s, 207° | - | - |
| 1778022412 | 24.44° C | 45% | 1005.1 hPa | 0 mm | 2.24 m/s, 223° | - | - |
| 1778022209 | 24.44° C | 45% | 1005 hPa | 0 mm | 2.24 m/s, 233° | - | - |
| 1778021510 | 25° C | 44% | 1005 hPa | 0 mm | 2.68 m/s, 267° | - | - |
| 1778020811 | 25.56° C | 42% | 1004.7 hPa | 0 mm | 2.68 m/s, 162° | - | - |
| 1778019488 | 26.11° C | 40% | 1004.4 hPa | 0 mm | 3.13 m/s, 227° | - | - |
| 1778019172 | 26.11° C | 39% | 1004.3 hPa | 0 mm | 2.68 m/s, 232° | - | - |
| 1778018846 | 26.11° C | 39% | 1004.2 hPa | 0 mm | 2.68 m/s, 237° | - | - |
| 1778018013 | 26.67° C | 39% | 1004.1 hPa | 0 mm | 2.68 m/s, 185° | - | - |
| 1778017433 | 27.22° C | 38% | 1003.9 hPa | 0 mm | 3.58 m/s, 213° | - | - |
| 1778014633 | 27.78° C | 36% | 1003.6 hPa | 0 mm | 3.13 m/s, 230° | - | - |
* Rain latest hour (hover to see other rain measurements)
** Current wind speed in m/s (hover to see current wind gust speed)